sensor_id;sensor_type;location;lat;lon;timestamp;temperature;humidity
38265;DHT22;24062;47.480;8.768;2024-01-06T00:02:05;20.80;54.50
38265;DHT22;24062;47.480;8.768;2024-01-06T00:04:32;20.80;54.60
38265;DHT22;24062;47.480;8.768;2024-01-06T00:06:59;20.70;54.60
38265;DHT22;24062;47.480;8.768;2024-01-06T00:09:26;20.70;54.60
38265;DHT22;24062;47.480;8.768;2024-01-06T00:11:53;20.70;54.60
38265;DHT22;24062;47.480;8.768;2024-01-06T00:14:20;20.60;54.60
38265;DHT22;24062;47.480;8.768;2024-01-06T00:16:47;20.60;54.60
38265;DHT22;24062;47.480;8.768;2024-01-06T00:19:15;20.60;54.70
38265;DHT22;24062;47.480;8.768;2024-01-06T00:21:43;20.60;54.70
38265;DHT22;24062;47.480;8.768;2024-01-06T00:24:10;20.60;54.70
38265;DHT22;24062;47.480;8.768;2024-01-06T00:26:36;20.60;54.70
38265;DHT22;24062;47.480;8.768;2024-01-06T00:29:03;20.50;54.70
38265;DHT22;24062;47.480;8.768;2024-01-06T00:31:30;20.50;54.70
38265;DHT22;24062;47.480;8.768;2024-01-06T00:33:57;20.50;54.70
38265;DHT22;24062;47.480;8.768;2024-01-06T00:36:25;20.50;54.80
38265;DHT22;24062;47.480;8.768;2024-01-06T00:38:52;20.50;54.80
38265;DHT22;24062;47.480;8.768;2024-01-06T00:41:19;20.40;54.80
38265;DHT22;24062;47.480;8.768;2024-01-06T00:43:46;20.50;54.90
38265;DHT22;24062;47.480;8.768;2024-01-06T00:46:12;20.40;54.80
38265;DHT22;24062;47.480;8.768;2024-01-06T00:48:39;20.40;54.80
38265;DHT22;24062;47.480;8.768;2024-01-06T00:51:06;20.40;55.50
38265;DHT22;24062;47.480;8.768;2024-01-06T00:53:34;20.40;54.90
38265;DHT22;24062;47.480;8.768;2024-01-06T00:56:01;20.40;54.90
38265;DHT22;24062;47.480;8.768;2024-01-06T00:58:28;20.40;54.90
38265;DHT22;24062;47.480;8.768;2024-01-06T01:00:55;20.40;55.00
38265;DHT22;24062;47.480;8.768;2024-01-06T01:03:22;20.30;54.90
38265;DHT22;24062;47.480;8.768;2024-01-06T01:05:49;20.30;54.90
38265;DHT22;24062;47.480;8.768;2024-01-06T01:08:16;20.30;55.60
38265;DHT22;24062;47.480;8.768;2024-01-06T01:10:44;20.30;55.00
38265;DHT22;24062;47.480;8.768;2024-01-06T01:13:11;20.30;55.00
38265;DHT22;24062;47.480;8.768;2024-01-06T01:15:38;20.20;55.00
38265;DHT22;24062;47.480;8.768;2024-01-06T01:18:05;20.20;54.90
38265;DHT22;24062;47.480;8.768;2024-01-06T01:20:32;20.20;55.00
38265;DHT22;24062;47.480;8.768;2024-01-06T01:22:59;20.20;55.00
38265;DHT22;24062;47.480;8.768;2024-01-06T01:25:25;20.20;55.00
38265;DHT22;24062;47.480;8.768;2024-01-06T01:27:54;20.20;55.00
38265;DHT22;24062;47.480;8.768;2024-01-06T01:30:20;20.20;55.00
38265;DHT22;24062;47.480;8.768;2024-01-06T01:32:47;20.20;55.00
38265;DHT22;24062;47.480;8.768;2024-01-06T01:35:14;20.20;55.00
38265;DHT22;24062;47.480;8.768;2024-01-06T01:37:41;20.20;55.00
38265;DHT22;24062;47.480;8.768;2024-01-06T01:40:09;20.10;55.00
38265;DHT22;24062;47.480;8.768;2024-01-06T01:42:35;20.20;55.10
38265;DHT22;24062;47.480;8.768;2024-01-06T01:45:05;20.20;55.10
38265;DHT22;24062;47.480;8.768;2024-01-06T01:47:31;20.10;55.10
38265;DHT22;24062;47.480;8.768;2024-01-06T01:49:59;20.10;55.10
38265;DHT22;24062;47.480;8.768;2024-01-06T01:52:26;20.10;55.20
38265;DHT22;24062;47.480;8.768;2024-01-06T01:54:53;20.10;55.20
38265;DHT22;24062;47.480;8.768;2024-01-06T01:57:21;20.00;55.20
38265;DHT22;24062;47.480;8.768;2024-01-06T01:59:50;20.10;55.20
38265;DHT22;24062;47.480;8.768;2024-01-06T02:02:19;20.00;55.10
38265;DHT22;24062;47.480;8.768;2024-01-06T02:04:47;20.00;55.20
38265;DHT22;24062;47.480;8.768;2024-01-06T02:07:14;20.10;55.30
38265;DHT22;24062;47.480;8.768;2024-01-06T02:09:41;20.00;55.10
38265;DHT22;24062;47.480;8.768;2024-01-06T02:12:08;20.00;55.20
38265;DHT22;24062;47.480;8.768;2024-01-06T02:14:35;20.00;55.20
38265;DHT22;24062;47.480;8.768;2024-01-06T02:17:02;20.00;55.20
38265;DHT22;24062;47.480;8.768;2024-01-06T02:19:30;20.00;55.20
38265;DHT22;24062;47.480;8.768;2024-01-06T02:21:58;19.90;55.20
38265;DHT22;24062;47.480;8.768;2024-01-06T02:24:25;20.00;55.20
38265;DHT22;24062;47.480;8.768;2024-01-06T02:26:52;19.90;55.20
38265;DHT22;24062;47.480;8.768;2024-01-06T02:29:19;19.90;55.20
38265;DHT22;24062;47.480;8.768;2024-01-06T02:31:46;19.90;55.30
38265;DHT22;24062;47.480;8.768;2024-01-06T02:34:13;19.90;55.20
38265;DHT22;24062;47.480;8.768;2024-01-06T02:36:39;19.90;55.30
38265;DHT22;24062;47.480;8.768;2024-01-06T02:39:08;19.90;55.20
38265;DHT22;24062;47.480;8.768;2024-01-06T02:41:34;19.90;55.30
38265;DHT22;24062;47.480;8.768;2024-01-06T02:44:02;19.90;55.20
38265;DHT22;24062;47.480;8.768;2024-01-06T02:46:29;19.90;55.30
38265;DHT22;24062;47.480;8.768;2024-01-06T02:48:56;19.80;55.30
38265;DHT22;24062;47.480;8.768;2024-01-06T02:51:23;19.90;55.30
38265;DHT22;24062;47.480;8.768;2024-01-06T02:53:50;19.80;55.30
38265;DHT22;24062;47.480;8.768;2024-01-06T02:56:18;19.90;55.30
38265;DHT22;24062;47.480;8.768;2024-01-06T02:58:45;19.80;55.20
38265;DHT22;24062;47.480;8.768;2024-01-06T03:01:12;19.80;55.30
38265;DHT22;24062;47.480;8.768;2024-01-06T03:03:39;19.80;55.30
38265;DHT22;24062;47.480;8.768;2024-01-06T03:06:06;19.90;55.30
38265;DHT22;24062;47.480;8.768;2024-01-06T03:08:33;19.90;55.30
38265;DHT22;24062;47.480;8.768;2024-01-06T03:11:01;19.90;55.20
38265;DHT22;24062;47.480;8.768;2024-01-06T03:13:31;19.90;55.30
38265;DHT22;24062;47.480;8.768;2024-01-06T03:16:03;19.90;55.30
38265;DHT22;24062;47.480;8.768;2024-01-06T03:18:29;19.80;55.20
38265;DHT22;24062;47.480;8.768;2024-01-06T03:20:56;19.80;55.30
38265;DHT22;24062;47.480;8.768;2024-01-06T03:23:23;19.90;55.30
38265;DHT22;24062;47.480;8.768;2024-01-06T03:25:50;20.00;55.20
38265;DHT22;24062;47.480;8.768;2024-01-06T03:28:17;20.10;55.20
38265;DHT22;24062;47.480;8.768;2024-01-06T03:30:45;20.20;55.10
38265;DHT22;24062;47.480;8.768;2024-01-06T03:33:12;20.20;55.00
38265;DHT22;24062;47.480;8.768;2024-01-06T03:35:39;20.30;55.10
38265;DHT22;24062;47.480;8.768;2024-01-06T03:38:05;20.40;55.10
38265;DHT22;24062;47.480;8.768;2024-01-06T03:40:32;20.40;55.00
38265;DHT22;24062;47.480;8.768;2024-01-06T03:42:59;20.50;55.00
38265;DHT22;24062;47.480;8.768;2024-01-06T03:45:26;20.50;54.90
38265;DHT22;24062;47.480;8.768;2024-01-06T03:47:54;20.60;54.90
38265;DHT22;24062;47.480;8.768;2024-01-06T03:50:21;20.60;54.80
38265;DHT22;24062;47.480;8.768;2024-01-06T03:52:48;20.70;54.80
38265;DHT22;24062;47.480;8.768;2024-01-06T03:55:15;20.70;54.70
38265;DHT22;24062;47.480;8.768;2024-01-06T03:57:42;20.70;54.70
38265;DHT22;24062;47.480;8.768;2024-01-06T04:00:10;20.80;54.70
38265;DHT22;24062;47.480;8.768;2024-01-06T04:02:36;20.80;54.70
38265;DHT22;24062;47.480;8.768;2024-01-06T04:05:05;20.80;54.70
38265;DHT22;24062;47.480;8.768;2024-01-06T04:07:32;20.90;54.70
38265;DHT22;24062;47.480;8.768;2024-01-06T04:09:59;20.90;54.60
38265;DHT22;24062;47.480;8.768;2024-01-06T04:12:26;20.90;54.60
38265;DHT22;24062;47.480;8.768;2024-01-06T04:14:52;20.90;54.50
38265;DHT22;24062;47.480;8.768;2024-01-06T04:17:19;20.90;54.50
38265;DHT22;24062;47.480;8.768;2024-01-06T04:19:46;21.00;54.50
38265;DHT22;24062;47.480;8.768;2024-01-06T04:22:14;21.00;54.50
38265;DHT22;24062;47.480;8.768;2024-01-06T04:24:41;21.00;54.50
38265;DHT22;24062;47.480;8.768;2024-01-06T04:27:08;21.00;54.40
38265;DHT22;24062;47.480;8.768;2024-01-06T04:29:36;21.10;54.50
38265;DHT22;24062;47.480;8.768;2024-01-06T04:32:03;21.00;54.40
38265;DHT22;24062;47.480;8.768;2024-01-06T04:34:30;21.10;54.40
38265;DHT22;24062;47.480;8.768;2024-01-06T04:36:57;21.10;54.30
38265;DHT22;24062;47.480;8.768;2024-01-06T04:39:25;21.10;54.30
38265;DHT22;24062;47.480;8.768;2024-01-06T04:41:52;21.10;54.30
38265;DHT22;24062;47.480;8.768;2024-01-06T04:44:20;21.10;54.20
38265;DHT22;24062;47.480;8.768;2024-01-06T04:46:47;21.20;54.30
38265;DHT22;24062;47.480;8.768;2024-01-06T04:49:14;21.20;54.30
38265;DHT22;24062;47.480;8.768;2024-01-06T04:51:41;21.20;54.30
38265;DHT22;24062;47.480;8.768;2024-01-06T04:54:08;21.20;54.20
38265;DHT22;24062;47.480;8.768;2024-01-06T04:56:36;21.20;54.20
38265;DHT22;24062;47.480;8.768;2024-01-06T04:59:03;21.20;54.20
38265;DHT22;24062;47.480;8.768;2024-01-06T05:01:30;21.20;54.20
38265;DHT22;24062;47.480;8.768;2024-01-06T05:03:57;21.20;54.10
38265;DHT22;24062;47.480;8.768;2024-01-06T05:06:25;21.20;54.00
38265;DHT22;24062;47.480;8.768;2024-01-06T05:08:52;21.30;54.10
38265;DHT22;24062;47.480;8.768;2024-01-06T05:11:18;21.30;54.00
38265;DHT22;24062;47.480;8.768;2024-01-06T05:13:47;21.20;53.90
38265;DHT22;24062;47.480;8.768;2024-01-06T05:16:14;21.30;54.00
38265;DHT22;24062;47.480;8.768;2024-01-06T05:18:40;21.30;54.00
38265;DHT22;24062;47.480;8.768;2024-01-06T05:21:07;21.30;53.90
38265;DHT22;24062;47.480;8.768;2024-01-06T05:23:34;21.30;53.90
38265;DHT22;24062;47.480;8.768;2024-01-06T05:26:01;21.30;53.90
38265;DHT22;24062;47.480;8.768;2024-01-06T05:28:28;21.30;53.90
38265;DHT22;24062;47.480;8.768;2024-01-06T05:30:56;21.30;53.90
38265;DHT22;24062;47.480;8.768;2024-01-06T05:33:23;21.30;53.80
38265;DHT22;24062;47.480;8.768;2024-01-06T05:35:50;21.30;53.80
38265;DHT22;24062;47.480;8.768;2024-01-06T05:38:17;21.40;53.80
38265;DHT22;24062;47.480;8.768;2024-01-06T05:40:43;21.40;53.70
38265;DHT22;24062;47.480;8.768;2024-01-06T05:43:10;21.40;53.70
38265;DHT22;24062;47.480;8.768;2024-01-06T05:45:37;21.40;53.60
38265;DHT22;24062;47.480;8.768;2024-01-06T05:48:10;21.30;53.50
38265;DHT22;24062;47.480;8.768;2024-01-06T05:50:37;21.40;54.20
38265;DHT22;24062;47.480;8.768;2024-01-06T05:53:04;21.40;53.60
38265;DHT22;24062;47.480;8.768;2024-01-06T05:55:31;21.40;53.50
38265;DHT22;24062;47.480;8.768;2024-01-06T05:57:58;21.40;53.50
38265;DHT22;24062;47.480;8.768;2024-01-06T06:00:26;21.40;53.40
38265;DHT22;24062;47.480;8.768;2024-01-06T06:02:53;21.40;53.40
38265;DHT22;24062;47.480;8.768;2024-01-06T06:05:21;21.40;53.30
38265;DHT22;24062;47.480;8.768;2024-01-06T06:07:48;21.40;53.20
38265;DHT22;24062;47.480;8.768;2024-01-06T06:10:15;21.40;53.20
38265;DHT22;24062;47.480;8.768;2024-01-06T06:12:44;21.40;53.20
38265;DHT22;24062;47.480;8.768;2024-01-06T06:15:11;21.40;53.10
38265;DHT22;24062;47.480;8.768;2024-01-06T06:17:39;21.40;53.00
38265;DHT22;24062;47.480;8.768;2024-01-06T06:20:06;21.40;53.00
38265;DHT22;24062;47.480;8.768;2024-01-06T06:22:35;21.40;53.00
38265;DHT22;24062;47.480;8.768;2024-01-06T06:25:01;21.40;53.10
38265;DHT22;24062;47.480;8.768;2024-01-06T06:27:29;21.50;53.00
38265;DHT22;24062;47.480;8.768;2024-01-06T06:29:56;21.50;53.00
38265;DHT22;24062;47.480;8.768;2024-01-06T06:32:22;21.50;52.90
38265;DHT22;24062;47.480;8.768;2024-01-06T06:34:51;21.50;52.80
38265;DHT22;24062;47.480;8.768;2024-01-06T06:37:18;21.50;52.90
38265;DHT22;24062;47.480;8.768;2024-01-06T06:39:46;21.50;52.80
38265;DHT22;24062;47.480;8.768;2024-01-06T06:42:13;21.50;52.80
38265;DHT22;24062;47.480;8.768;2024-01-06T06:44:40;21.50;52.80
38265;DHT22;24062;47.480;8.768;2024-01-06T06:47:07;21.50;52.80
38265;DHT22;24062;47.480;8.768;2024-01-06T06:49:34;21.50;52.70
38265;DHT22;24062;47.480;8.768;2024-01-06T06:52:00;21.50;52.70
38265;DHT22;24062;47.480;8.768;2024-01-06T06:54:29;21.50;52.70
38265;DHT22;24062;47.480;8.768;2024-01-06T06:56:57;21.60;52.80
38265;DHT22;24062;47.480;8.768;2024-01-06T06:59:24;21.60;52.70
38265;DHT22;24062;47.480;8.768;2024-01-06T07:01:51;21.60;52.60
38265;DHT22;24062;47.480;8.768;2024-01-06T07:04:18;21.60;52.60
38265;DHT22;24062;47.480;8.768;2024-01-06T07:06:45;21.60;52.70
38265;DHT22;24062;47.480;8.768;2024-01-06T07:09:12;21.50;52.50
38265;DHT22;24062;47.480;8.768;2024-01-06T07:11:39;21.50;52.50
38265;DHT22;24062;47.480;8.768;2024-01-06T07:14:07;21.60;52.50
38265;DHT22;24062;47.480;8.768;2024-01-06T07:16:34;21.60;52.60
38265;DHT22;24062;47.480;8.768;2024-01-06T07:19:00;21.60;52.50
38265;DHT22;24062;47.480;8.768;2024-01-06T07:21:27;21.60;52.50
38265;DHT22;24062;47.480;8.768;2024-01-06T07:23:54;21.60;52.40
38265;DHT22;24062;47.480;8.768;2024-01-06T07:26:21;21.60;52.40
38265;DHT22;24062;47.480;8.768;2024-01-06T07:28:48;21.60;52.40
38265;DHT22;24062;47.480;8.768;2024-01-06T07:31:16;21.60;52.40
38265;DHT22;24062;47.480;8.768;2024-01-06T07:33:43;21.60;52.40
38265;DHT22;24062;47.480;8.768;2024-01-06T07:36:11;21.60;52.40
38265;DHT22;24062;47.480;8.768;2024-01-06T07:38:38;21.60;52.40
38265;DHT22;24062;47.480;8.768;2024-01-06T07:41:06;21.60;52.30
38265;DHT22;24062;47.480;8.768;2024-01-06T07:43:33;21.60;52.40
38265;DHT22;24062;47.480;8.768;2024-01-06T07:46:00;21.60;52.40
38265;DHT22;24062;47.480;8.768;2024-01-06T07:48:30;21.60;52.40
38265;DHT22;24062;47.480;8.768;2024-01-06T07:50:57;21.60;52.30
38265;DHT22;24062;47.480;8.768;2024-01-06T07:53:24;21.60;52.30
38265;DHT22;24062;47.480;8.768;2024-01-06T07:55:51;21.60;52.30
38265;DHT22;24062;47.480;8.768;2024-01-06T07:58:18;21.60;52.30
38265;DHT22;24062;47.480;8.768;2024-01-06T08:00:45;21.70;52.50
38265;DHT22;24062;47.480;8.768;2024-01-06T08:03:12;21.60;52.80
38265;DHT22;24062;47.480;8.768;2024-01-06T08:05:40;21.70;52.20
38265;DHT22;24062;47.480;8.768;2024-01-06T08:08:07;21.70;52.40
38265;DHT22;24062;47.480;8.768;2024-01-06T08:10:34;21.70;52.20
38265;DHT22;24062;47.480;8.768;2024-01-06T08:13:01;21.70;52.20
38265;DHT22;24062;47.480;8.768;2024-01-06T08:15:28;21.70;52.20
38265;DHT22;24062;47.480;8.768;2024-01-06T08:17:55;21.70;52.30
38265;DHT22;24062;47.480;8.768;2024-01-06T08:20:22;21.80;52.20
38265;DHT22;24062;47.480;8.768;2024-01-06T08:22:50;21.70;52.10
38265;DHT22;24062;47.480;8.768;2024-01-06T08:25:17;21.70;52.20
38265;DHT22;24062;47.480;8.768;2024-01-06T08:27:44;21.70;52.10
38265;DHT22;24062;47.480;8.768;2024-01-06T08:30:11;21.70;52.20
38265;DHT22;24062;47.480;8.768;2024-01-06T08:32:38;21.80;52.20
38265;DHT22;24062;47.480;8.768;2024-01-06T08:35:06;21.80;52.30
38265;DHT22;24062;47.480;8.768;2024-01-06T08:37:33;21.80;52.10
38265;DHT22;24062;47.480;8.768;2024-01-06T08:40:01;21.80;52.10
38265;DHT22;24062;47.480;8.768;2024-01-06T08:42:29;21.70;52.10
38265;DHT22;24062;47.480;8.768;2024-01-06T08:44:56;21.70;52.10
38265;DHT22;24062;47.480;8.768;2024-01-06T08:47:23;21.80;52.20
38265;DHT22;24062;47.480;8.768;2024-01-06T08:49:49;21.80;52.20
38265;DHT22;24062;47.480;8.768;2024-01-06T08:52:16;21.80;52.20
38265;DHT22;24062;47.480;8.768;2024-01-06T08:54:43;21.80;52.20
38265;DHT22;24062;47.480;8.768;2024-01-06T08:57:11;21.90;52.30
38265;DHT22;24062;47.480;8.768;2024-01-06T08:59:38;21.80;52.40
38265;DHT22;24062;47.480;8.768;2024-01-06T09:02:05;21.80;52.20
38265;DHT22;24062;47.480;8.768;2024-01-06T09:04:33;21.80;52.30
38265;DHT22;24062;47.480;8.768;2024-01-06T09:07:00;21.90;52.30
38265;DHT22;24062;47.480;8.768;2024-01-06T09:09:26;21.80;52.20
38265;DHT22;24062;47.480;8.768;2024-01-06T09:11:55;21.80;52.20
38265;DHT22;24062;47.480;8.768;2024-01-06T09:14:23;21.80;52.10
38265;DHT22;24062;47.480;8.768;2024-01-06T09:16:50;21.90;52.30
38265;DHT22;24062;47.480;8.768;2024-01-06T09:19:17;21.90;52.30
38265;DHT22;24062;47.480;8.768;2024-01-06T09:21:44;21.90;52.30
38265;DHT22;24062;47.480;8.768;2024-01-06T09:24:11;21.90;52.30
38265;DHT22;24062;47.480;8.768;2024-01-06T09:26:38;21.90;52.20
38265;DHT22;24062;47.480;8.768;2024-01-06T09:29:04;21.90;52.20
38265;DHT22;24062;47.480;8.768;2024-01-06T09:31:33;21.90;52.30
38265;DHT22;24062;47.480;8.768;2024-01-06T09:34:00;21.90;52.20
38265;DHT22;24062;47.480;8.768;2024-01-06T09:36:29;22.00;52.30
38265;DHT22;24062;47.480;8.768;2024-01-06T09:38:56;21.90;52.20
38265;DHT22;24062;47.480;8.768;2024-01-06T09:41:23;21.90;52.20
38265;DHT22;24062;47.480;8.768;2024-01-06T09:43:50;21.90;52.20
38265;DHT22;24062;47.480;8.768;2024-01-06T09:46:23;21.90;52.20
38265;DHT22;24062;47.480;8.768;2024-01-06T09:48:53;21.90;52.30
38265;DHT22;24062;47.480;8.768;2024-01-06T09:51:21;21.90;52.30
38265;DHT22;24062;47.480;8.768;2024-01-06T09:53:51;22.00;52.40
38265;DHT22;24062;47.480;8.768;2024-01-06T09:56:19;22.00;52.40
38265;DHT22;24062;47.480;8.768;2024-01-06T09:58:47;22.00;52.40
38265;DHT22;24062;47.480;8.768;2024-01-06T10:01:14;22.00;52.40
38265;DHT22;24062;47.480;8.768;2024-01-06T10:03:41;22.00;52.40
38265;DHT22;24062;47.480;8.768;2024-01-06T10:06:10;22.00;52.40
38265;DHT22;24062;47.480;8.768;2024-01-06T10:08:36;22.00;52.40
38265;DHT22;24062;47.480;8.768;2024-01-06T10:11:06;22.00;53.10
38265;DHT22;24062;47.480;8.768;2024-01-06T10:13:33;22.00;52.40
38265;DHT22;24062;47.480;8.768;2024-01-06T10:16:00;22.00;52.50
38265;DHT22;24062;47.480;8.768;2024-01-06T10:18:27;22.00;52.50
38265;DHT22;24062;47.480;8.768;2024-01-06T10:20:55;22.00;52.60
38265;DHT22;24062;47.480;8.768;2024-01-06T10:23:25;22.00;52.50
38265;DHT22;24062;47.480;8.768;2024-01-06T10:25:53;22.00;52.50
38265;DHT22;24062;47.480;8.768;2024-01-06T10:28:21;22.10;52.50
38265;DHT22;24062;47.480;8.768;2024-01-06T10:30:48;22.00;52.50
38265;DHT22;24062;47.480;8.768;2024-01-06T10:33:15;22.00;52.50
38265;DHT22;24062;47.480;8.768;2024-01-06T10:35:42;22.00;52.50
38265;DHT22;24062;47.480;8.768;2024-01-06T10:38:10;22.00;52.50
38265;DHT22;24062;47.480;8.768;2024-01-06T10:40:39;22.10;52.50
38265;DHT22;24062;47.480;8.768;2024-01-06T10:43:06;22.00;52.50
38265;DHT22;24062;47.480;8.768;2024-01-06T10:45:34;22.10;52.50
38265;DHT22;24062;47.480;8.768;2024-01-06T10:48:04;22.10;52.60
38265;DHT22;24062;47.480;8.768;2024-01-06T10:50:31;22.10;52.60
38265;DHT22;24062;47.480;8.768;2024-01-06T10:53:00;22.00;52.50
38265;DHT22;24062;47.480;8.768;2024-01-06T10:55:29;22.10;52.60
38265;DHT22;24062;47.480;8.768;2024-01-06T10:57:58;22.10;52.60
38265;DHT22;24062;47.480;8.768;2024-01-06T11:00:26;22.10;52.60
38265;DHT22;24062;47.480;8.768;2024-01-06T11:02:54;22.10;52.60
38265;DHT22;24062;47.480;8.768;2024-01-06T11:05:21;22.10;52.60
38265;DHT22;24062;47.480;8.768;2024-01-06T11:07:49;22.10;52.70
38265;DHT22;24062;47.480;8.768;2024-01-06T11:10:18;22.00;52.60
38265;DHT22;24062;47.480;8.768;2024-01-06T11:12:46;22.00;52.50
38265;DHT22;24062;47.480;8.768;2024-01-06T11:15:43;22.00;52.60
38265;DHT22;24062;47.480;8.768;2024-01-06T11:18:30;22.00;52.50
38265;DHT22;24062;47.480;8.768;2024-01-06T11:21:19;22.00;52.50
38265;DHT22;24062;47.480;8.768;2024-01-06T11:24:13;22.00;52.60
38265;DHT22;24062;47.480;8.768;2024-01-06T11:26:43;22.00;52.60
38265;DHT22;24062;47.480;8.768;2024-01-06T11:29:10;22.00;52.60
38265;DHT22;24062;47.480;8.768;2024-01-06T11:31:38;21.90;52.50
38265;DHT22;24062;47.480;8.768;2024-01-06T11:34:15;22.00;52.60
38265;DHT22;24062;47.480;8.768;2024-01-06T11:36:44;21.90;52.50
38265;DHT22;24062;47.480;8.768;2024-01-06T11:39:33;22.00;52.60
38265;DHT22;24062;47.480;8.768;2024-01-06T11:42:00;21.90;52.60
38265;DHT22;24062;47.480;8.768;2024-01-06T11:44:28;21.90;52.60
38265;DHT22;24062;47.480;8.768;2024-01-06T11:46:58;21.90;52.70
38265;DHT22;24062;47.480;8.768;2024-01-06T11:49:26;21.90;52.60
38265;DHT22;24062;47.480;8.768;2024-01-06T11:51:54;21.90;52.70
38265;DHT22;24062;47.480;8.768;2024-01-06T11:54:21;22.00;52.70
38265;DHT22;24062;47.480;8.768;2024-01-06T11:56:48;22.00;52.70
38265;DHT22;24062;47.480;8.768;2024-01-06T11:59:15;22.00;52.70
38265;DHT22;24062;47.480;8.768;2024-01-06T12:01:42;22.00;52.70
38265;DHT22;24062;47.480;8.768;2024-01-06T12:04:13;22.00;52.70
38265;DHT22;24062;47.480;8.768;2024-01-06T12:06:41;22.00;52.60
38265;DHT22;24062;47.480;8.768;2024-01-06T12:09:10;22.00;52.60
38265;DHT22;24062;47.480;8.768;2024-01-06T12:11:39;22.00;52.70
38265;DHT22;24062;47.480;8.768;2024-01-06T12:14:07;22.00;52.70
38265;DHT22;24062;47.480;8.768;2024-01-06T12:16:34;22.00;52.60
38265;DHT22;24062;47.480;8.768;2024-01-06T12:19:01;22.00;52.60
38265;DHT22;24062;47.480;8.768;2024-01-06T12:21:30;22.00;52.60
38265;DHT22;24062;47.480;8.768;2024-01-06T12:24:13;22.00;52.60
38265;DHT22;24062;47.480;8.768;2024-01-06T12:26:41;22.00;52.60
38265;DHT22;24062;47.480;8.768;2024-01-06T12:29:09;22.00;52.50
38265;DHT22;24062;47.480;8.768;2024-01-06T12:31:36;22.00;52.50
38265;DHT22;24062;47.480;8.768;2024-01-06T12:34:04;22.10;52.60
38265;DHT22;24062;47.480;8.768;2024-01-06T12:36:35;22.00;53.10
38265;DHT22;24062;47.480;8.768;2024-01-06T12:39:03;22.00;52.60
38265;DHT22;24062;47.480;8.768;2024-01-06T12:41:30;22.10;52.70
38265;DHT22;24062;47.480;8.768;2024-01-06T12:43:58;22.10;52.60
38265;DHT22;24062;47.480;8.768;2024-01-06T12:46:26;22.10;52.60
38265;DHT22;24062;47.480;8.768;2024-01-06T12:48:52;22.10;52.60
38265;DHT22;24062;47.480;8.768;2024-01-06T12:51:19;22.10;52.50
38265;DHT22;24062;47.480;8.768;2024-01-06T12:53:47;22.10;52.50
38265;DHT22;24062;47.480;8.768;2024-01-06T12:56:14;22.10;52.50
38265;DHT22;24062;47.480;8.768;2024-01-06T12:58:42;22.10;52.50
38265;DHT22;24062;47.480;8.768;2024-01-06T13:01:10;22.10;52.60
38265;DHT22;24062;47.480;8.768;2024-01-06T13:03:37;22.10;52.50
38265;DHT22;24062;47.480;8.768;2024-01-06T13:06:04;22.10;52.60
38265;DHT22;24062;47.480;8.768;2024-01-06T13:08:31;22.10;52.60
38265;DHT22;24062;47.480;8.768;2024-01-06T13:11:00;22.10;52.70
38265;DHT22;24062;47.480;8.768;2024-01-06T13:13:27;22.10;52.70
38265;DHT22;24062;47.480;8.768;2024-01-06T13:15:54;22.10;52.70
38265;DHT22;24062;47.480;8.768;2024-01-06T13:18:20;22.20;52.80
38265;DHT22;24062;47.480;8.768;2024-01-06T13:20:47;22.20;52.80
38265;DHT22;24062;47.480;8.768;2024-01-06T13:23:15;22.20;52.70
38265;DHT22;24062;47.480;8.768;2024-01-06T13:25:43;22.20;52.60
38265;DHT22;24062;47.480;8.768;2024-01-06T13:28:11;22.30;52.70
38265;DHT22;24062;47.480;8.768;2024-01-06T13:30:38;22.30;52.60
38265;DHT22;24062;47.480;8.768;2024-01-06T13:33:07;22.30;52.60
38265;DHT22;24062;47.480;8.768;2024-01-06T13:35:34;22.30;52.60
38265;DHT22;24062;47.480;8.768;2024-01-06T13:38:02;22.30;52.60
38265;DHT22;24062;47.480;8.768;2024-01-06T13:40:30;22.30;52.60
38265;DHT22;24062;47.480;8.768;2024-01-06T13:42:58;22.30;52.60
38265;DHT22;24062;47.480;8.768;2024-01-06T13:45:26;22.30;52.70
38265;DHT22;24062;47.480;8.768;2024-01-06T13:47:53;22.30;52.80
38265;DHT22;24062;47.480;8.768;2024-01-06T13:50:20;22.30;52.60
38265;DHT22;24062;47.480;8.768;2024-01-06T13:52:47;22.30;52.50
38265;DHT22;24062;47.480;8.768;2024-01-06T13:55:14;22.20;52.60
38265;DHT22;24062;47.480;8.768;2024-01-06T13:57:41;22.30;52.70
38265;DHT22;24062;47.480;8.768;2024-01-06T14:00:08;22.30;52.70
38265;DHT22;24062;47.480;8.768;2024-01-06T14:02:37;22.30;52.70
38265;DHT22;24062;47.480;8.768;2024-01-06T14:05:05;22.30;52.60
38265;DHT22;24062;47.480;8.768;2024-01-06T14:07:34;22.30;52.60
38265;DHT22;24062;47.480;8.768;2024-01-06T14:10:01;22.30;52.60
38265;DHT22;24062;47.480;8.768;2024-01-06T14:12:30;22.40;52.70
38265;DHT22;24062;47.480;8.768;2024-01-06T14:14:57;22.40;52.80
38265;DHT22;24062;47.480;8.768;2024-01-06T14:17:24;22.40;52.80
38265;DHT22;24062;47.480;8.768;2024-01-06T14:19:53;22.40;52.90
38265;DHT22;24062;47.480;8.768;2024-01-06T14:22:19;22.40;52.90
38265;DHT22;24062;47.480;8.768;2024-01-06T14:24:46;22.40;52.90
38265;DHT22;24062;47.480;8.768;2024-01-06T14:27:13;22.40;53.00
38265;DHT22;24062;47.480;8.768;2024-01-06T14:29:40;22.40;53.00
38265;DHT22;24062;47.480;8.768;2024-01-06T14:32:07;22.50;53.10
38265;DHT22;24062;47.480;8.768;2024-01-06T14:34:34;22.50;53.10
38265;DHT22;24062;47.480;8.768;2024-01-06T14:37:03;22.50;53.10
38265;DHT22;24062;47.480;8.768;2024-01-06T14:39:29;22.60;53.20
38265;DHT22;24062;47.480;8.768;2024-01-06T14:41:56;22.50;53.10
38265;DHT22;24062;47.480;8.768;2024-01-06T14:44:23;22.50;53.20
38265;DHT22;24062;47.480;8.768;2024-01-06T14:46:52;22.50;53.10
38265;DHT22;24062;47.480;8.768;2024-01-06T14:49:19;22.50;53.20
38265;DHT22;24062;47.480;8.768;2024-01-06T14:51:46;22.50;53.20
38265;DHT22;24062;47.480;8.768;2024-01-06T14:54:14;22.40;53.20
38265;DHT22;24062;47.480;8.768;2024-01-06T14:56:41;22.40;53.20
38265;DHT22;24062;47.480;8.768;2024-01-06T14:59:08;22.40;53.10
38265;DHT22;24062;47.480;8.768;2024-01-06T15:01:35;22.40;53.10
38265;DHT22;24062;47.480;8.768;2024-01-06T15:04:02;22.40;53.10
38265;DHT22;24062;47.480;8.768;2024-01-06T15:06:29;22.40;53.00
38265;DHT22;24062;47.480;8.768;2024-01-06T15:08:56;22.40;53.00
38265;DHT22;24062;47.480;8.768;2024-01-06T15:11:24;22.40;52.90
38265;DHT22;24062;47.480;8.768;2024-01-06T15:13:51;22.40;52.90
38265;DHT22;24062;47.480;8.768;2024-01-06T15:16:18;22.40;52.90
38265;DHT22;24062;47.480;8.768;2024-01-06T15:18:45;22.30;52.80
38265;DHT22;24062;47.480;8.768;2024-01-06T15:21:12;22.30;52.80
38265;DHT22;24062;47.480;8.768;2024-01-06T15:23:40;22.30;52.80
38265;DHT22;24062;47.480;8.768;2024-01-06T15:26:07;22.30;52.80
38265;DHT22;24062;47.480;8.768;2024-01-06T15:28:35;22.30;52.80
38265;DHT22;24062;47.480;8.768;2024-01-06T15:31:03;22.30;52.80
38265;DHT22;24062;47.480;8.768;2024-01-06T15:33:29;22.30;52.80